Time;durP1;ratioP1;P1;durP2;ratioP2;P2;SDS_P1;SDS_P2;PMS_P1;PMS_P2;Temp;Humidity;BMP_temperature;BMP_pressure;BME280_temperature;BME280_humidity;BME280_pressure;Samples;Min_cycle;Max_cycle;Signal;HPM_P1;HPM_P2
2023/02/14 00:00:01;;;;;;;31.15;14.18;;;;;;;;;;1032405;28;20040;-75
2023/02/14 00:00:31;;;;;;;26.35;13.90;;;;;;;;;;1032357;28;20026;-75
2023/02/14 00:01:08;;;;;;;33.95;14.15;;;;;;;;;;1031715;28;20022;-75
2023/02/14 00:01:39;;;;;;;22.75;13.13;;;;;;;;;;1034426;28;20076;-75
2023/02/14 00:02:10;;;;;;;23.98;13.55;;;;;;;;;;1035894;28;20603;-75
2023/02/14 00:02:40;;;;;;;21.83;10.40;;;;;;;;;;1032250;28;20026;-75
2023/02/14 00:03:12;;;;;;;47.22;12.88;;;;;;;;;;1034669;28;20025;-75
2023/02/14 00:03:42;;;;;;;23.58;11.85;;;;;;;;;;1027348;28;20118;-75
2023/02/14 00:04:13;;;;;;;21.77;10.45;;;;;;;;;;1028043;28;20094;-75
2023/02/14 00:04:45;;;;;;;23.70;14.30;;;;;;;;;;1027808;28;20086;-75
2023/02/14 00:05:16;;;;;;;13.98;9.55;;;;;;;;;;1029352;28;20092;-75
2023/02/14 00:05:46;;;;;;;18.58;10.13;;;;;;;;;;1030065;28;20038;-75
2023/02/14 00:06:17;;;;;;;23.23;13.55;;;;;;;;;;1031405;28;20154;-75
2023/02/14 00:06:47;;;;;;;22.52;10.73;;;;;;;;;;1027229;28;20034;-75
2023/02/14 00:07:18;;;;;;;18.00;11.23;;;;;;;;;;1031277;28;20018;-75
2023/02/14 00:07:48;;;;;;;14.10;9.57;;;;;;;;;;1027996;28;20822;-75
2023/02/14 00:08:19;;;;;;;30.00;13.73;;;;;;;;;;1029217;28;20537;-75
2023/02/14 00:08:52;;;;;;;21.13;10.18;;;;;;;;;;1032033;28;20409;-75
2023/02/14 00:09:23;;;;;;;13.05;6.35;;;;;;;;;;1031881;28;20014;-75
2023/02/14 00:09:53;;;;;;;24.85;7.22;;;;;;;;;;1031365;28;20101;-75
2023/02/14 00:10:24;;;;;;;27.65;10.98;;;;;;;;;;1026302;28;20368;-75
2023/02/14 00:10:54;;;;;;;25.85;11.73;;;;;;;;;;1027215;28;20061;-75
2023/02/14 00:11:25;;;;;;;32.92;8.32;;;;;;;;;;1027340;28;20081;-75
2023/02/14 00:11:55;;;;;;;16.88;10.40;;;;;;;;;;1031425;28;20165;-75
2023/02/14 00:12:26;;;;;;;14.95;8.63;;;;;;;;;;1031196;28;20121;-75
2023/02/14 00:12:56;;;;;;;25.75;12.30;;;;;;;;;;1031460;28;20367;-75
2023/02/14 00:13:26;;;;;;;16.08;7.35;;;;;;;;;;1031310;28;20509;-75
2023/02/14 00:15:35;;;;;;;25.38;10.23;;;;;;;;;;1035658;28;20029;-75
2023/02/14 00:16:06;;;;;;;20.70;9.55;;;;;;;;;;1031339;28;20026;-75
2023/02/14 00:16:36;;;;;;;19.42;8.52;;;;;;;;;;1031738;28;20030;-75
2023/02/14 00:17:07;;;;;;;15.38;8.77;;;;;;;;;;1027749;28;20086;-75
2023/02/14 00:17:37;;;;;;;27.02;11.63;;;;;;;;;;1026559;28;20102;-75
2023/02/14 00:18:07;;;;;;;18.95;10.30;;;;;;;;;;1031580;28;20117;-75
2023/02/14 00:19:27;;;;;;;22.45;8.90;;;;;;;;;;1034820;28;20030;-18
2023/02/14 00:19:57;;;;;;;22.20;10.48;;;;;;;;;;1035257;28;20029;-20
2023/02/14 00:20:28;;;;;;;8.98;6.47;;;;;;;;;;1035414;28;20025;-20
2023/02/14 00:20:59;;;;;;;9.48;7.38;;;;;;;;;;1035586;28;20021;-17
2023/02/14 00:21:36;;;;;;;12.40;8.32;;;;;;;;;;1034343;28;20022;-19
2023/02/14 00:22:07;;;;;;;14.57;8.32;;;;;;;;;;1031459;28;21185;-17
2023/02/14 00:22:37;;;;;;;11.80;6.85;;;;;;;;;;1031250;28;20049;-19
2023/02/14 00:23:07;;;;;;;22.13;7.88;;;;;;;;;;1031237;28;20398;-20
2023/02/14 00:23:38;;;;;;;15.52;7.68;;;;;;;;;;1031132;28;20018;-19
2023/02/14 00:24:13;;;;;;;10.20;7.93;;;;;;;;;;1031394;28;20030;-21
2023/02/14 00:24:43;;;;;;;16.42;6.88;;;;;;;;;;1031339;28;20032;-20
2023/02/14 00:25:14;;;;;;;27.88;6.10;;;;;;;;;;1031584;28;20029;-20
2023/02/14 00:25:44;;;;;;;23.70;7.70;;;;;;;;;;1031717;28;20030;-18
2023/02/14 00:26:15;;;;;;;26.20;10.95;;;;;;;;;;1031578;28;20028;-19
2023/02/14 00:26:45;;;;;;;29.95;9.98;;;;;;;;;;1031526;28;20036;-19
2023/02/14 00:27:16;;;;;;;7.38;4.40;;;;;;;;;;1031375;28;20113;-21
2023/02/14 00:27:46;;;;;;;9.55;7.30;;;;;;;;;;1031518;28;20026;-19
2023/02/14 00:28:16;;;;;;;12.63;11.23;;;;;;;;;;1030397;28;20101;-17
2023/02/14 00:28:47;;;;;;;8.60;6.85;;;;;;;;;;1030197;28;20113;-18
2023/02/14 00:29:19;;;;;;;37.30;8.23;;;;;;;;;;1031412;28;20025;-19
2023/02/14 00:29:50;;;;;;;17.67;7.03;;;;;;;;;;1031632;28;20034;-18
2023/02/14 00:30:20;;;;;;;19.30;8.65;;;;;;;;;;1031454;28;20474;-16
2023/02/14 00:30:51;;;;;;;14.43;10.40;;;;;;;;;;1031519;28;20054;-19
2023/02/14 00:31:21;;;;;;;32.25;7.18;;;;;;;;;;1031326;28;20389;-20
2023/02/14 00:31:52;;;;;;;12.07;4.80;;;;;;;;;;1031662;28;22141;-17
2023/02/14 00:32:22;;;;;;;7.00;6.28;;;;;;;;;;1031506;28;20513;-17
2023/02/14 00:32:53;;;;;;;14.00;6.25;;;;;;;;;;1031333;28;20390;-18
2023/02/14 00:33:23;;;;;;;17.70;8.00;;;;;;;;;;1031182;28;20026;-21
2023/02/14 00:33:54;;;;;;;9.85;7.93;;;;;;;;;;1031592;28;20026;-20
2023/02/14 00:34:25;;;;;;;14.27;8.75;;;;;;;;;;1031376;28;20023;-20
2023/02/14 00:34:55;;;;;;;13.85;7.70;;;;;;;;;;1031398;28;20029;-18
2023/02/14 00:35:26;;;;;;;21.45;8.10;;;;;;;;;;1031303;28;20392;-21
2023/02/14 00:35:56;;;;;;;10.77;8.65;;;;;;;;;;1031005;28;20116;-20
2023/02/14 00:36:27;;;;;;;17.92;8.70;;;;;;;;;;1031130;28;20022;-19
2023/02/14 00:36:57;;;;;;;18.08;8.55;;;;;;;;;;1031147;28;20026;-18
2023/02/14 00:37:28;;;;;;;19.58;7.55;;;;;;;;;;1031258;28;20026;-18
2023/02/14 00:37:58;;;;;;;23.00;8.07;;;;;;;;;;1031487;28;20030;-18
2023/02/14 00:38:29;;;;;;;12.00;8.52;;;;;;;;;;1031262;28;20022;-17
2023/02/14 00:39:02;;;;;;;9.23;5.32;;;;;;;;;;1031342;28;20033;-19
2023/02/14 00:39:32;;;;;;;12.40;6.65;;;;;;;;;;1029970;28;20026;-20
2023/02/14 00:40:03;;;;;;;7.80;5.13;;;;;;;;;;1028992;28;20090;-19
2023/02/14 00:40:33;;;;;;;16.13;5.30;;;;;;;;;;1029517;28;20518;-20
2023/02/14 00:41:04;;;;;;;11.95;7.32;;;;;;;;;;1028297;28;20027;-19
2023/02/14 00:41:34;;;;;;;15.25;7.60;;;;;;;;;;1030340;28;20065;-19
2023/02/14 00:42:04;;;;;;;21.15;10.02;;;;;;;;;;1031481;28;20026;-17
2023/02/14 00:42:35;;;;;;;14.30;8.52;;;;;;;;;;1031101;28;20478;-19
2023/02/14 00:43:05;;;;;;;8.38;5.43;;;;;;;;;;1031412;28;20049;-19
2023/02/14 00:43:36;;;;;;;22.80;7.35;;;;;;;;;;1031286;28;20070;-17
2023/02/14 00:44:07;;;;;;;6.22;3.92;;;;;;;;;;1031648;28;20033;-19
2023/02/14 00:44:37;;;;;;;18.02;6.88;;;;;;;;;;1031080;28;20026;-17
2023/02/14 00:45:08;;;;;;;12.57;5.88;;;;;;;;;;1031319;28;20030;-19
2023/02/14 00:45:38;;;;;;;12.30;6.85;;;;;;;;;;1031180;28;20023;-18
2023/02/14 00:46:08;;;;;;;10.90;5.28;;;;;;;;;;1031531;28;20026;-20
2023/02/14 00:46:39;;;;;;;10.57;6.53;;;;;;;;;;1030983;28;20025;-17
2023/02/14 00:47:10;;;;;;;9.30;6.43;;;;;;;;;;1031536;28;20076;-18
2023/02/14 00:47:40;;;;;;;14.18;8.07;;;;;;;;;;1030787;28;20022;-17
2023/02/14 00:48:11;;;;;;;9.63;4.63;;;;;;;;;;1031561;28;20034;-18
2023/02/14 00:48:41;;;;;;;10.07;5.15;;;;;;;;;;1031062;28;20022;-16
2023/02/14 00:49:11;;;;;;;9.52;5.88;;;;;;;;;;1031373;28;20026;-19
2023/02/14 00:49:42;;;;;;;11.40;6.28;;;;;;;;;;1030634;28;20513;-20
2023/02/14 00:50:12;;;;;;;27.80;6.32;;;;;;;;;;1031445;28;20471;-20
2023/02/14 00:50:45;;;;;;;14.88;5.70;;;;;;;;;;1031320;28;20505;-18
2023/02/14 00:51:17;;;;;;;12.80;6.35;;;;;;;;;;1031369;28;20034;-17
2023/02/14 00:51:47;;;;;;;9.95;7.70;;;;;;;;;;1030599;28;20109;-18
2023/02/14 00:52:18;;;;;;;10.05;6.50;;;;;;;;;;1031334;28;20041;-20
2023/02/14 00:52:48;;;;;;;7.03;4.53;;;;;;;;;;1031455;28;20026;-18
2023/02/14 00:53:19;;;;;;;8.98;6.57;;;;;;;;;;1031259;28;20030;-19
2023/02/14 00:53:50;;;;;;;22.67;8.85;;;;;;;;;;1031537;28;20014;-19
2023/02/14 00:54:20;;;;;;;8.45;5.43;;;;;;;;;;1031404;28;20500;-20
2023/02/14 00:54:50;;;;;;;12.05;7.63;;;;;;;;;;1031350;28;20449;-19
2023/02/14 00:55:21;;;;;;;17.10;8.10;;;;;;;;;;1031245;28;20649;-19
2023/02/14 00:55:51;;;;;;;14.65;6.15;;;;;;;;;;1031824;28;20482;-19
2023/02/14 00:56:22;;;;;;;18.00;7.50;;;;;;;;;;1032193;28;20044;-19
2023/02/14 00:56:52;;;;;;;29.27;9.95;;;;;;;;;;1031463;28;20046;-21
2023/02/14 00:57:23;;;;;;;15.35;9.18;;;;;;;;;;1031361;28;20038;-18
2023/02/14 00:57:53;;;;;;;15.55;5.90;;;;;;;;;;1031520;28;20018;-17
2023/02/14 00:58:24;;;;;;;11.63;5.97;;;;;;;;;;1031052;28;20037;-17
2023/02/14 00:58:54;;;;;;;30.77;9.52;;;;;;;;;;1031548;28;20030;-19
2023/02/14 00:59:25;;;;;;;9.93;5.72;;;;;;;;;;1029621;28;20453;-17
2023/02/14 00:59:55;;;;;;;10.85;5.75;;;;;;;;;;1031483;28;20382;-18
2023/02/14 01:00:26;;;;;;;10.07;6.28;;;;;;;;;;1031338;28;20022;-21
2023/02/14 01:00:56;;;;;;;14.00;8.40;;;;;;;;;;1031481;28;20026;-19
2023/02/14 01:01:27;;;;;;;15.57;9.38;;;;;;;;;;1031122;28;20454;-16
2023/02/14 01:01:58;;;;;;;12.18;7.43;;;;;;;;;;1031152;28;20437;-19
2023/02/14 01:02:28;;;;;;;16.98;5.85;;;;;;;;;;1031426;28;20414;-19
2023/02/14 01:02:58;;;;;;;13.63;7.20;;;;;;;;;;1031522;28;20062;-16
2023/02/14 01:03:29;;;;;;;11.48;8.60;;;;;;;;;;1031131;28;20117;-19
2023/02/14 01:03:59;;;;;;;27.58;9.57;;;;;;;;;;1031480;28;20109;-17
2023/02/14 01:04:30;;;;;;;16.63;6.25;;;;;;;;;;1031157;28;20026;-18
2023/02/14 01:05:00;;;;;;;25.20;8.82;;;;;;;;;;1031507;28;20068;-19
2023/02/14 01:05:31;;;;;;;11.80;7.93;;;;;;;;;;1031081;28;20584;-20
2023/02/14 01:06:01;;;;;;;25.30;8.20;;;;;;;;;;1031038;28;20084;-19
2023/02/14 01:06:32;;;;;;;21.08;7.88;;;;;;;;;;1031092;28;20022;-18
2023/02/14 01:07:02;;;;;;;13.52;7.35;;;;;;;;;;1031374;28;20022;-18
2023/02/14 01:07:33;;;;;;;11.43;5.85;;;;;;;;;;1031056;28;20366;-17
2023/02/14 01:08:03;;;;;;;18.00;8.77;;;;;;;;;;1031409;28;20470;-17
2023/02/14 01:08:34;;;;;;;11.80;6.72;;;;;;;;;;1031210;28;20173;-20
2023/02/14 01:09:04;;;;;;;15.82;7.13;;;;;;;;;;1031468;28;20022;-19
2023/02/14 01:09:35;;;;;;;10.65;6.20;;;;;;;;;;1031088;28;20057;-20
2023/02/14 01:10:05;;;;;;;11.07;7.10;;;;;;;;;;1031694;28;20069;-18
2023/02/14 01:10:36;;;;;;;9.05;5.65;;;;;;;;;;1031121;28;20057;-18
2023/02/14 01:11:11;;;;;;;16.48;6.63;;;;;;;;;;1031471;28;20417;-18
2023/02/14 01:11:42;;;;;;;11.20;6.10;;;;;;;;;;1030845;28;20033;-17
2023/02/14 01:12:12;;;;;;;27.52;10.95;;;;;;;;;;1031436;28;20033;-19
2023/02/14 01:12:43;;;;;;;15.07;8.90;;;;;;;;;;1031310;28;20019;-19
2023/02/14 01:13:13;;;;;;;14.45;8.45;;;;;;;;;;1031255;28;20030;-19
2023/02/14 01:13:44;;;;;;;18.48;7.78;;;;;;;;;;1031269;28;20026;-19
2023/02/14 01:14:15;;;;;;;14.45;9.40;;;;;;;;;;1031067;28;20035;-19
2023/02/14 01:14:45;;;;;;;21.17;8.88;;;;;;;;;;1031293;28;20022;-18
2023/02/14 01:15:15;;;;;;;24.45;7.30;;;;;;;;;;1031196;28;20057;-19
2023/02/14 01:15:47;;;;;;;13.38;7.93;;;;;;;;;;1030241;28;20468;-20
2023/02/14 01:16:19;;;;;;;13.55;9.63;;;;;;;;;;1030676;28;20038;-17
2023/02/14 01:16:49;;;;;;;15.27;6.47;;;;;;;;;;1030373;28;20018;-19
2023/02/14 01:17:20;;;;;;;12.05;9.00;;;;;;;;;;1030979;28;20026;-19
2023/02/14 01:18:57;;;;;;;20.95;9.90;;;;;;;;;;1030675;28;20026;-17
2023/02/14 01:20:36;;;;;;;19.50;9.18;;;;;;;;;;1030574;28;20022;-17
2023/02/14 01:21:23;;;;;;;17.92;8.23;;;;;;;;;;1030639;28;20026;-18
2023/02/14 01:21:54;;;;;;;12.60;7.93;;;;;;;;;;1030327;28;20494;-19
2023/02/14 01:22:24;;;;;;;20.75;9.55;;;;;;;;;;1028969;28;20011;-18
2023/02/14 01:22:56;;;;;;;15.65;8.95;;;;;;;;;;1029983;28;20030;-20
2023/02/14 01:23:27;;;;;;;27.40;10.60;;;;;;;;;;1030515;28;20105;-19
2023/02/14 01:23:59;;;;;;;26.98;9.60;;;;;;;;;;1031328;28;20855;-18
2023/02/14 01:24:30;;;;;;;24.05;6.30;;;;;;;;;;1030395;28;20019;-20
2023/02/14 01:25:00;;;;;;;16.98;6.38;;;;;;;;;;1030430;28;20022;-20
2023/02/14 01:25:31;;;;;;;27.50;6.65;;;;;;;;;;1030522;28;20022;-18
2023/02/14 01:26:05;;;;;;;22.15;10.73;;;;;;;;;;1031386;28;20050;-20
2023/02/14 01:26:35;;;;;;;32.50;12.00;;;;;;;;;;1030913;28;20057;-16
2023/02/14 01:27:06;;;;;;;14.52;9.88;;;;;;;;;;1031193;28;20019;-20
2023/02/14 01:27:38;;;;;;;19.90;6.30;;;;;;;;;;1030674;28;20034;-18
2023/02/14 01:28:08;;;;;;;15.95;7.13;;;;;;;;;;1031562;28;20041;-19
2023/02/14 01:28:39;;;;;;;22.90;8.65;;;;;;;;;;1031057;28;20077;-18
2023/02/14 01:29:09;;;;;;;18.20;10.95;;;;;;;;;;1031995;28;20521;-18
2023/02/14 01:29:40;;;;;;;17.40;9.18;;;;;;;;;;1035081;28;20420;-17
2023/02/14 01:30:11;;;;;;;22.38;9.38;;;;;;;;;;1031467;28;20022;-18
2023/02/14 01:30:42;;;;;;;33.40;13.98;;;;;;;;;;1030604;28;20018;-19
2023/02/14 01:31:13;;;;;;;17.75;10.35;;;;;;;;;;1031454;28;20035;-17
2023/02/14 01:31:47;;;;;;;23.35;13.23;;;;;;;;;;1030972;28;20029;-18
2023/02/14 01:32:17;;;;;;;17.75;10.20;;;;;;;;;;1030911;28;20395;-17
2023/02/14 01:32:48;;;;;;;20.80;12.27;;;;;;;;;;1031545;28;20029;-19
2023/02/14 01:33:18;;;;;;;27.17;12.27;;;;;;;;;;1030444;28;20363;-20
2023/02/14 01:33:49;;;;;;;34.95;14.52;;;;;;;;;;1029602;28;20034;-19
2023/02/14 01:34:20;;;;;;;16.00;9.32;;;;;;;;;;1030727;28;20117;-19
2023/02/14 01:34:52;;;;;;;25.05;12.13;;;;;;;;;;1031190;28;20041;-18
2023/02/14 01:35:23;;;;;;;26.27;10.20;;;;;;;;;;1030520;28;20030;-18
2023/02/14 01:35:54;;;;;;;20.10;10.48;;;;;;;;;;1030557;28;20033;-19
2023/02/14 01:36:26;;;;;;;33.80;13.98;;;;;;;;;;1029916;28;20113;-17
2023/02/14 01:36:56;;;;;;;17.65;10.73;;;;;;;;;;1030345;28;20109;-20
2023/02/14 01:37:27;;;;;;;29.27;10.45;;;;;;;;;;1031181;28;20019;-20
2023/02/14 01:37:57;;;;;;;34.38;15.65;;;;;;;;;;1032070;28;20527;-19
2023/02/14 01:38:28;;;;;;;37.28;11.68;;;;;;;;;;1031705;28;20041;-18
2023/02/14 01:39:01;;;;;;;33.58;14.18;;;;;;;;;;1031767;28;20501;-17
2023/02/14 01:39:31;;;;;;;21.05;11.10;;;;;;;;;;1031156;28;20037;-18
2023/02/14 01:40:02;;;;;;;26.95;10.60;;;;;;;;;;1031091;28;20295;-18
2023/02/14 01:40:33;;;;;;;32.08;15.75;;;;;;;;;;1031087;28;20915;-20
2023/02/14 01:41:04;;;;;;;93.38;44.90;;;;;;;;;;1031473;28;20026;-18
2023/02/14 01:41:35;;;;;;;69.90;26.58;;;;;;;;;;1031612;28;20034;-21
2023/02/14 01:42:06;;;;;;;72.75;34.90;;;;;;;;;;1030888;28;20026;-18
2023/02/14 01:42:37;;;;;;;47.75;18.10;;;;;;;;;;1031445;28;20541;-19
2023/02/14 01:43:12;;;;;;;64.78;30.33;;;;;;;;;;1031707;28;20504;-19
2023/02/14 01:43:49;;;;;;;30.05;15.30;;;;;;;;;;1030814;28;20030;-18
2023/02/14 01:44:32;;;;;;;34.88;14.90;;;;;;;;;;1029608;28;20705;-18
2023/02/14 01:45:02;;;;;;;21.45;10.90;;;;;;;;;;1031187;28;20029;-18
2023/02/14 01:45:33;;;;;;;37.42;15.43;;;;;;;;;;1031694;28;20033;-19
2023/02/14 01:46:04;;;;;;;40.20;13.90;;;;;;;;;;1028667;28;20027;-17
2023/02/14 01:46:35;;;;;;;39.78;16.65;;;;;;;;;;1023563;28;20038;-19
2023/02/14 01:47:07;;;;;;;50.45;20.77;;;;;;;;;;1026669;28;20023;-18
2023/02/14 01:47:40;;;;;;;101.25;27.50;;;;;;;;;;1027758;28;20426;-19
2023/02/14 01:48:10;;;;;;;57.28;24.73;;;;;;;;;;1030780;28;20490;-21
2023/02/14 01:48:42;;;;;;;59.67;24.27;;;;;;;;;;1034601;28;20026;-17
2023/02/14 01:49:29;;;;;;;60.20;25.88;;;;;;;;;;1035382;28;20036;-17
2023/02/14 01:50:03;;;;;;;31.85;16.52;;;;;;;;;;1030242;28;20026;-19
2023/02/14 01:50:37;;;;;;;43.17;20.50;;;;;;;;;;1028396;28;20019;-18
2023/02/14 01:51:07;;;;;;;36.63;21.63;;;;;;;;;;1027517;28;20039;-17
2023/02/14 01:51:41;;;;;;;55.53;24.33;;;;;;;;;;1029717;28;20018;-17
2023/02/14 01:52:17;;;;;;;59.88;26.70;;;;;;;;;;1032809;28;20412;-17
2023/02/14 01:53:01;;;;;;;78.43;24.70;;;;;;;;;;1032114;28;20530;-19
2023/02/14 01:53:32;;;;;;;56.17;27.02;;;;;;;;;;1034181;28;20132;-19
2023/02/14 01:54:04;;;;;;;53.97;28.58;;;;;;;;;;1031256;28;20560;-19
2023/02/14 01:54:36;;;;;;;71.93;29.67;;;;;;;;;;1031860;28;20036;-18
2023/02/14 01:55:08;;;;;;;65.57;30.20;;;;;;;;;;1031542;28;20054;-17
2023/02/14 01:55:41;;;;;;;58.17;34.47;;;;;;;;;;1030510;28;20176;-16
2023/02/14 01:56:13;;;;;;;60.90;25.70;;;;;;;;;;1030845;28;20113;-16
2023/02/14 01:56:46;;;;;;;68.28;30.33;;;;;;;;;;1029837;28;20088;-19
2023/02/14 01:57:18;;;;;;;61.60;24.80;;;;;;;;;;1030516;28;20026;-17
2023/02/14 01:57:51;;;;;;;56.15;24.95;;;;;;;;;;1030862;28;20030;-20
2023/02/14 01:58:24;;;;;;;51.83;25.05;;;;;;;;;;1031352;28;20038;-18
2023/02/14 01:58:56;;;;;;;60.75;29.45;;;;;;;;;;1031032;28;20046;-18
2023/02/14 01:59:29;;;;;;;93.00;21.63;;;;;;;;;;1031475;28;20022;-19
2023/02/14 02:00:55;;;;;;;54.00;26.75;;;;;;;;;;1031430;28;20046;-18
2023/02/14 02:00:57;;;;;;;48.83;23.27;;;;;;;;;;1030631;28;20022;-16
2023/02/14 02:01:28;;;;;;;47.40;18.27;;;;;;;;;;1030514;28;20030;-20
2023/02/14 02:01:59;;;;;;;41.75;21.70;;;;;;;;;;1031448;28;20521;-16
2023/02/14 02:02:29;;;;;;;32.03;18.80;;;;;;;;;;1031236;28;20084;-17
2023/02/14 02:03:00;;;;;;;46.60;21.38;;;;;;;;;;1029527;28;20022;-17
2023/02/14 02:03:36;;;;;;;61.03;27.10;;;;;;;;;;1031418;28;20030;-16
2023/02/14 02:04:09;;;;;;;39.20;20.42;;;;;;;;;;1030790;28;20030;-18
2023/02/14 02:04:44;;;;;;;49.40;20.60;;;;;;;;;;1031292;28;20478;-17
2023/02/14 02:05:15;;;;;;;53.33;24.38;;;;;;;;;;1031184;28;20032;-17
2023/02/14 02:05:51;;;;;;;50.90;20.35;;;;;;;;;;1030703;28;20065;-19
2023/02/14 02:06:30;;;;;;;75.75;24.98;;;;;;;;;;1028947;28;20405;-18
2023/02/14 02:07:04;;;;;;;38.92;20.95;;;;;;;;;;1029709;28;20532;-19
2023/02/14 02:07:35;;;;;;;26.90;18.42;;;;;;;;;;1029299;28;20572;-19
2023/02/14 02:08:05;;;;;;;30.25;18.73;;;;;;;;;;1028865;28;20053;-17
2023/02/14 02:08:39;;;;;;;53.28;23.17;;;;;;;;;;1028940;28;20104;-19
2023/02/14 02:09:19;;;;;;;56.22;27.17;;;;;;;;;;1030793;28;20772;-17
2023/02/14 02:09:52;;;;;;;51.63;24.15;;;;;;;;;;1031650;28;20029;-19
2023/02/14 02:10:23;;;;;;;51.40;23.80;;;;;;;;;;1032839;28;20034;-16
2023/02/14 02:10:53;;;;;;;64.13;26.65;;;;;;;;;;1031402;28;20018;-17
2023/02/14 02:11:24;;;;;;;52.30;25.15;;;;;;;;;;1031876;28;20026;-18
2023/02/14 02:11:55;;;;;;;47.45;22.50;;;;;;;;;;1030363;28;20072;-22
2023/02/14 02:12:25;;;;;;;54.28;27.80;;;;;;;;;;1031335;28;20478;-18
2023/02/14 02:12:58;;;;;;;60.40;21.80;;;;;;;;;;1030764;28;20042;-21
2023/02/14 02:13:33;;;;;;;59.60;21.55;;;;;;;;;;1034075;28;20088;-21
2023/02/14 02:14:13;;;;;;;50.33;20.70;;;;;;;;;;1032119;28;20038;-22
2023/02/14 02:14:44;;;;;;;35.08;15.77;;;;;;;;;;1033906;28;20412;-18
2023/02/14 02:15:16;;;;;;;54.28;18.75;;;;;;;;;;1034136;28;20026;-19
2023/02/14 02:15:50;;;;;;;91.72;23.13;;;;;;;;;;1029640;28;20029;-20
2023/02/14 02:16:26;;;;;;;70.65;18.45;;;;;;;;;;1030150;28;20444;-19
2023/02/14 02:17:06;;;;;;;62.42;20.42;;;;;;;;;;1029243;28;20566;-17
2023/02/14 02:17:38;;;;;;;28.70;17.15;;;;;;;;;;1029045;28;20513;-18
2023/02/14 02:18:28;;;;;;;43.47;18.23;;;;;;;;;;1029242;28;20031;-17
2023/02/14 02:19:14;;;;;;;46.78;22.70;;;;;;;;;;1019858;28;20055;-18
2023/02/14 02:20:00;;;;;;;46.65;18.88;;;;;;;;;;1029826;28;20029;-20
2023/02/14 02:20:37;;;;;;;39.60;16.50;;;;;;;;;;1030099;28;20077;-18
2023/02/14 02:21:25;;;;;;;40.30;18.85;;;;;;;;;;1029630;28;20084;-18
2023/02/14 02:22:11;;;;;;;29.88;15.90;;;;;;;;;;1029239;28;20026;-20
2023/02/14 02:23:00;;;;;;;56.95;18.20;;;;;;;;;;1028178;28;20031;-19
2023/02/14 02:23:34;;;;;;;40.33;14.48;;;;;;;;;;1029485;28;20026;-19
2023/02/14 02:24:13;;;;;;;32.65;17.55;;;;;;;;;;1030695;28;20064;-20
2023/02/14 02:24:51;;;;;;;52.88;16.08;;;;;;;;;;1030488;28;20026;-18
2023/02/14 02:25:40;;;;;;;22.75;12.25;;;;;;;;;;1030052;28;20030;-19
2023/02/14 02:26:20;;;;;;;28.50;15.38;;;;;;;;;;1029221;28;20018;-18
2023/02/14 02:27:06;;;;;;;38.65;12.98;;;;;;;;;;1029610;28;20026;-17
2023/02/14 02:27:55;;;;;;;33.15;12.50;;;;;;;;;;1029384;28;20038;-18
2023/02/14 02:28:25;;;;;;;36.60;15.10;;;;;;;;;;1031359;28;20022;-18
2023/02/14 02:29:05;;;;;;;29.55;15.93;;;;;;;;;;1030501;28;20018;-20
2023/02/14 02:29:51;;;;;;;23.98;14.60;;;;;;;;;;1030092;28;20037;-20
2023/02/14 02:30:50;;;;;;;21.35;11.80;;;;;;;;;;1030532;28;20945;-18
2023/02/14 02:31:23;;;;;;;19.15;10.68;;;;;;;;;;1034432;28;20125;-18
2023/02/14 02:32:06;;;;;;;44.35;18.02;;;;;;;;;;1034534;28;20120;-21
2023/02/14 02:32:55;;;;;;;23.90;11.95;;;;;;;;;;1033831;28;20021;-21
2023/02/14 02:33:44;;;;;;;29.27;10.98;;;;;;;;;;1031201;28;20019;-23
2023/02/14 02:34:15;;;;;;;37.45;9.80;;;;;;;;;;1031060;28;20022;-23
2023/02/14 02:34:55;;;;;;;18.33;10.10;;;;;;;;;;1030771;28;20022;-20
2023/02/14 02:35:29;;;;;;;25.40;13.75;;;;;;;;;;1030896;28;20026;-18
2023/02/14 02:36:02;;;;;;;35.22;10.32;;;;;;;;;;1031087;28;20030;-18
2023/02/14 02:36:35;;;;;;;30.10;13.90;;;;;;;;;;1029931;28;20121;-21
2023/02/14 02:37:12;;;;;;;36.33;13.38;;;;;;;;;;1031061;28;20030;-19
2023/02/14 02:37:55;;;;;;;20.17;10.70;;;;;;;;;;1030167;28;20120;-21
2023/02/14 02:38:44;;;;;;;11.80;7.78;;;;;;;;;;1030475;28;20202;-19
2023/02/14 02:39:14;;;;;;;47.58;14.05;;;;;;;;;;1028941;28;20026;-22
2023/02/14 02:39:53;;;;;;;22.60;9.65;;;;;;;;;;1030091;28;20065;-21
2023/02/14 02:40:32;;;;;;;31.95;11.38;;;;;;;;;;1030773;28;20077;-21
2023/02/14 02:41:05;;;;;;;8.88;7.50;;;;;;;;;;1030346;28;20073;-18
2023/02/14 02:41:48;;;;;;;9.65;6.65;;;;;;;;;;1029074;28;20035;-19
2023/02/14 02:42:25;;;;;;;19.33;9.05;;;;;;;;;;1031320;28;20482;-20
2023/02/14 02:43:15;;;;;;;10.82;9.02;;;;;;;;;;1030551;28;20054;-19
2023/02/14 02:43:46;;;;;;;6.82;5.80;;;;;;;;;;1028545;28;20210;-21
2023/02/14 02:44:22;;;;;;;11.80;5.88;;;;;;;;;;1029064;28;20583;-20
2023/02/14 02:45:08;;;;;;;11.40;6.18;;;;;;;;;;1029072;28;20576;-18
2023/02/14 02:47:01;;;;;;;7.70;5.53;;;;;;;;;;1029213;28;20161;-20
2023/02/14 02:47:38;;;;;;;8.88;5.57;;;;;;;;;;1030356;28;20174;-19
2023/02/14 02:48:12;;;;;;;18.80;7.85;;;;;;;;;;1030971;28;20045;-20
2023/02/14 02:48:47;;;;;;;45.40;8.77;;;;;;;;;;1030429;28;20121;-22
2023/02/14 02:53:01;;;;;;;15.82;6.43;;;;;;;;;;1030325;28;20061;-17
2023/02/14 02:53:24;;;;;;;6.15;4.68;;;;;;;;;;1029298;28;20026;-18
2023/02/14 02:54:07;;;;;;;5.47;4.93;;;;;;;;;;1028588;28;20064;-20
2023/02/14 02:54:43;;;;;;;5.45;4.97;;;;;;;;;;1028997;28;20390;-21
2023/02/14 02:56:47;;;;;;;5.05;4.38;;;;;;;;;;1029530;28;20036;-19
2023/02/14 02:57:22;;;;;;;15.45;6.63;;;;;;;;;;1029674;28;20034;-20
2023/02/14 02:57:56;;;;;;;6.70;5.82;;;;;;;;;;1029751;28;20034;-16
2023/02/14 02:58:36;;;;;;;6.70;4.75;;;;;;;;;;1029222;28;20061;-19
2023/02/14 02:59:17;;;;;;;7.15;4.75;;;;;;;;;;1031895;28;20516;-19
2023/02/14 02:59:52;;;;;;;10.30;5.70;;;;;;;;;;1029755;28;20656;-19
2023/02/14 03:00:24;;;;;;;12.02;7.25;;;;;;;;;;1029249;28;20026;-21
2023/02/14 03:01:00;;;;;;;4.47;3.88;;;;;;;;;;1028660;28;20034;-19
2023/02/14 03:01:36;;;;;;;15.75;8.73;;;;;;;;;;1031285;28;20038;-17
2023/02/14 03:02:17;;;;;;;6.95;5.25;;;;;;;;;;1033913;28;20033;-22
2023/02/14 03:04:53;;;;;;;13.27;6.55;;;;;;;;;;1030507;28;20139;-18
2023/02/14 03:05:44;;;;;;;11.23;6.35;;;;;;;;;;1033301;28;20477;-20
2023/02/14 03:06:19;;;;;;;9.05;7.57;;;;;;;;;;1033403;28;20609;-21
2023/02/14 03:06:52;;;;;;;14.00;5.30;;;;;;;;;;1019981;28;20129;-22
2023/02/14 03:07:38;;;;;;;18.00;6.10;;;;;;;;;;1024409;28;20039;-20
2023/02/14 03:08:08;;;;;;;10.65;4.60;;;;;;;;;;1027414;28;20023;-19
2023/02/14 03:08:39;;;;;;;15.68;7.57;;;;;;;;;;1027531;28;20471;-18
2023/02/14 03:09:11;;;;;;;20.20;7.75;;;;;;;;;;1030131;28;20109;-22
2023/02/14 03:09:42;;;;;;;14.63;7.82;;;;;;;;;;1029830;28;20029;-19
2023/02/14 03:10:21;;;;;;;10.63;7.03;;;;;;;;;;1030134;28;20026;-18
2023/02/14 03:10:53;;;;;;;11.02;5.15;;;;;;;;;;1027805;28;20073;-19
2023/02/14 03:11:25;;;;;;;10.95;6.85;;;;;;;;;;1030610;28;20076;-19
2023/02/14 03:12:00;;;;;;;14.23;7.03;;;;;;;;;;1033386;28;20033;-19
2023/02/14 03:12:39;;;;;;;8.88;6.63;;;;;;;;;;1030685;28;20057;-21
2023/02/14 03:13:18;;;;;;;20.45;6.68;;;;;;;;;;1031569;28;20034;-19
2023/02/14 03:14:06;;;;;;;11.90;8.40;;;;;;;;;;1032309;28;20057;-18
2023/02/14 03:14:58;;;;;;;13.43;6.65;;;;;;;;;;1033268;28;20048;-22
2023/02/14 03:15:41;;;;;;;12.85;7.13;;;;;;;;;;1028884;28;20129;-20
2023/02/14 03:16:27;;;;;;;48.88;7.72;;;;;;;;;;1029416;28;20069;-18
2023/02/14 03:17:17;;;;;;;34.25;9.00;;;;;;;;;;1028828;28;20089;-19
2023/02/14 03:18:12;;;;;;;47.10;10.02;;;;;;;;;;1029531;28;20026;-17
2023/02/14 03:18:56;;;;;;;25.15;7.10;;;;;;;;;;1029512;28;20096;-16
2023/02/14 03:19:28;;;;;;;18.83;10.82;;;;;;;;;;1032243;28;21234;-19
2023/02/14 03:20:14;;;;;;;24.10;13.15;;;;;;;;;;1029147;28;20092;-17
2023/02/14 03:20:47;;;;;;;17.00;8.30;;;;;;;;;;1028603;28;20030;-17
2023/02/14 03:21:21;;;;;;;10.35;8.70;;;;;;;;;;1025454;28;20118;-19
2023/02/14 03:22:03;;;;;;;16.95;9.10;;;;;;;;;;1027299;28;20022;-18
2023/02/14 03:22:43;;;;;;;23.23;10.63;;;;;;;;;;1028140;28;20030;-19
2023/02/14 03:23:24;;;;;;;40.45;13.88;;;;;;;;;;1031966;28;20029;-19
2023/02/14 03:24:13;;;;;;;16.33;9.10;;;;;;;;;;1028272;28;20338;-19
2023/02/14 03:24:47;;;;;;;15.85;8.20;;;;;;;;;;1029662;28;20895;-18
2023/02/14 03:25:39;;;;;;;16.05;11.32;;;;;;;;;;1027210;28;20458;-20
2023/02/14 03:26:10;;;;;;;;;;;;;;;;;;1033314;28;20022;-24
2023/02/14 03:26:48;;;;;;;26.45;8.98;;;;;;;;;;1034003;28;19917;-19
2023/02/14 03:27:33;;;;;;;20.33;7.45;;;;;;;;;;1029371;28;20045;-21
2023/02/14 03:28:17;;;;;;;7.05;5.78;;;;;;;;;;1028614;28;20014;-21
2023/02/14 03:28:52;;;;;;;35.90;11.20;;;;;;;;;;1030011;28;20033;-21
2023/02/14 03:29:43;;;;;;;27.98;13.32;;;;;;;;;;1028403;28;20093;-20
2023/02/14 03:30:39;;;;;;;26.65;12.30;;;;;;;;;;1031324;28;20034;-20
2023/02/14 03:31:32;;;;;;;33.67;13.10;;;;;;;;;;1028385;28;20040;-22
2023/02/14 03:32:12;;;;;;;34.20;13.07;;;;;;;;;;1028002;28;20025;-22
2023/02/14 03:32:49;;;;;;;26.63;10.93;;;;;;;;;;1032331;28;20030;-22